sensor_id;sensor_type;location;lat;lon;timestamp;pressure;altitude;pressure_sealevel;temperature;humidity
6216;BME280;3141;49.234;9.326;2023-02-23T00:00:34;99330.16;;;12.15;72.96
6216;BME280;3141;49.234;9.326;2023-02-23T00:01:23;99341.53;;;12.23;73.10
6216;BME280;3141;49.234;9.326;2023-02-23T00:02:06;99344.97;;;12.24;72.79
6216;BME280;3141;49.234;9.326;2023-02-23T00:02:49;99339.06;;;12.14;73.66
6216;BME280;3141;49.234;9.326;2023-02-23T00:03:31;99339.06;;;12.14;73.67
6216;BME280;3141;49.234;9.326;2023-02-23T00:04:13;99340.09;;;12.13;73.52
6216;BME280;3141;49.234;9.326;2023-02-23T00:04:55;99334.63;;;12.14;72.94
6216;BME280;3141;49.234;9.326;2023-02-23T00:05:38;99336.44;;;12.14;73.58
6216;BME280;3141;49.234;9.326;2023-02-23T00:06:22;99332.44;;;12.18;73.35
6216;BME280;3141;49.234;9.326;2023-02-23T00:07:05;99333.59;;;12.15;73.50
6216;BME280;3141;49.234;9.326;2023-02-23T00:07:47;99347.31;;;12.19;73.26
6216;BME280;3141;49.234;9.326;2023-02-23T00:08:29;99336.06;;;12.17;73.31
6216;BME280;3141;49.234;9.326;2023-02-23T00:09:13;99337.75;;;12.18;73.09
6216;BME280;3141;49.234;9.326;2023-02-23T00:10:05;99334.09;;;12.19;73.04
6216;BME280;3141;49.234;9.326;2023-02-23T00:10:48;99339.38;;;12.19;73.23
6216;BME280;3141;49.234;9.326;2023-02-23T00:11:30;99339.03;;;12.22;73.26
6216;BME280;3141;49.234;9.326;2023-02-23T00:12:14;99342.88;;;12.19;73.12
6216;BME280;3141;49.234;9.326;2023-02-23T00:12:58;99344.66;;;12.27;72.91
6216;BME280;3141;49.234;9.326;2023-02-23T00:13:41;99337.50;;;12.27;72.98
6216;BME280;3141;49.234;9.326;2023-02-23T00:14:28;99339.81;;;12.30;72.81
6216;BME280;3141;49.234;9.326;2023-02-23T00:15:12;99336.34;;;12.30;72.69
6216;BME280;3141;49.234;9.326;2023-02-23T00:15:54;99337.00;;;12.32;72.76
6216;BME280;3141;49.234;9.326;2023-02-23T00:16:36;99344.13;;;12.31;72.74
6216;BME280;3141;49.234;9.326;2023-02-23T00:17:19;99340.63;;;12.31;72.61
6216;BME280;3141;49.234;9.326;2023-02-23T00:18:01;99343.94;;;12.33;72.43
6216;BME280;3141;49.234;9.326;2023-02-23T00:18:54;99339.00;;;12.30;72.94
6216;BME280;3141;49.234;9.326;2023-02-23T00:19:36;99340.81;;;12.29;73.08
6216;BME280;3141;49.234;9.326;2023-02-23T00:20:19;99343.47;;;12.29;73.19
6216;BME280;3141;49.234;9.326;2023-02-23T00:21:06;99337.97;;;12.31;73.30
6216;BME280;3141;49.234;9.326;2023-02-23T00:21:48;99338.63;;;12.33;72.86
6216;BME280;3141;49.234;9.326;2023-02-23T00:22:32;99341.66;;;12.30;72.97
6216;BME280;3141;49.234;9.326;2023-02-23T00:23:15;99333.22;;;12.26;73.28
6216;BME280;3141;49.234;9.326;2023-02-23T00:23:59;99339.97;;;12.29;73.12
6216;BME280;3141;49.234;9.326;2023-02-23T00:24:42;99341.00;;;12.28;73.28
6216;BME280;3141;49.234;9.326;2023-02-23T00:25:24;99344.81;;;12.25;73.28
6216;BME280;3141;49.234;9.326;2023-02-23T00:26:06;99336.53;;;12.28;73.38
6216;BME280;3141;49.234;9.326;2023-02-23T00:26:49;99339.50;;;12.25;73.52
6216;BME280;3141;49.234;9.326;2023-02-23T00:27:32;99335.38;;;12.23;73.62
6216;BME280;3141;49.234;9.326;2023-02-23T00:28:14;99341.81;;;12.28;73.48
6216;BME280;3141;49.234;9.326;2023-02-23T00:28:57;99331.41;;;12.27;73.18
6216;BME280;3141;49.234;9.326;2023-02-23T00:29:39;99340.50;;;12.24;73.71
6216;BME280;3141;49.234;9.326;2023-02-23T00:30:21;99333.03;;;12.28;73.50
6216;BME280;3141;49.234;9.326;2023-02-23T00:31:04;99337.31;;;12.29;73.48
6216;BME280;3141;49.234;9.326;2023-02-23T00:31:48;99336.03;;;12.25;73.73
6216;BME280;3141;49.234;9.326;2023-02-23T00:32:31;99336.06;;;12.17;74.40
6216;BME280;3141;49.234;9.326;2023-02-23T00:33:13;99332.13;;;12.13;74.63
6216;BME280;3141;49.234;9.326;2023-02-23T00:33:58;99324.69;;;12.08;74.44
6216;BME280;3141;49.234;9.326;2023-02-23T00:34:41;99328.13;;;12.17;74.37
6216;BME280;3141;49.234;9.326;2023-02-23T00:35:23;99335.38;;;12.23;74.09
6216;BME280;3141;49.234;9.326;2023-02-23T00:36:12;99324.13;;;12.21;73.94
6216;BME280;3141;49.234;9.326;2023-02-23T00:36:54;99331.66;;;12.09;74.87
6216;BME280;3141;49.234;9.326;2023-02-23T00:37:37;99330.16;;;12.15;74.72
6216;BME280;3141;49.234;9.326;2023-02-23T00:38:19;99324.84;;;12.15;74.30
6216;BME280;3141;49.234;9.326;2023-02-23T00:39:04;99331.78;;;12.16;74.81
6216;BME280;3141;49.234;9.326;2023-02-23T00:40:04;99326.19;;;12.11;75.11
6216;BME280;3141;49.234;9.326;2023-02-23T00:40:55;99323.53;;;12.11;75.17
6216;BME280;3141;49.234;9.326;2023-02-23T00:41:38;99325.34;;;12.10;75.45
6216;BME280;3141;49.234;9.326;2023-02-23T00:42:20;99329.78;;;12.18;75.05
6216;BME280;3141;49.234;9.326;2023-02-23T00:43:02;99332.25;;;12.19;74.87
6216;BME280;3141;49.234;9.326;2023-02-23T00:43:45;99327.31;;;12.16;75.21
6216;BME280;3141;49.234;9.326;2023-02-23T00:44:29;99330.47;;;12.12;75.46
6216;BME280;3141;49.234;9.326;2023-02-23T00:45:12;99326.53;;;12.08;75.60
6216;BME280;3141;49.234;9.326;2023-02-23T00:45:55;99331.31;;;12.12;75.52
6216;BME280;3141;49.234;9.326;2023-02-23T00:46:37;99328.47;;;12.14;75.09
6216;BME280;3141;49.234;9.326;2023-02-23T00:47:20;99329.13;;;12.16;75.12
6216;BME280;3141;49.234;9.326;2023-02-23T00:48:02;99322.19;;;12.15;75.51
6216;BME280;3141;49.234;9.326;2023-02-23T00:48:49;99325.81;;;12.14;75.43
6216;BME280;3141;49.234;9.326;2023-02-23T00:49:32;99331.53;;;12.03;76.08
6216;BME280;3141;49.234;9.326;2023-02-23T00:50:16;99323.72;;;12.01;76.28
6216;BME280;3141;49.234;9.326;2023-02-23T00:51:00;99323.72;;;12.01;76.55
6216;BME280;3141;49.234;9.326;2023-02-23T00:51:43;99316.31;;;11.97;76.65
6216;BME280;3141;49.234;9.326;2023-02-23T00:52:26;99320.22;;;12.09;75.87
6216;BME280;3141;49.234;9.326;2023-02-23T00:53:10;99321.53;;;12.13;75.86
6216;BME280;3141;49.234;9.326;2023-02-23T00:53:53;99320.88;;;12.11;75.98
6216;BME280;3141;49.234;9.326;2023-02-23T00:54:36;99319.88;;;12.12;75.80
6216;BME280;3141;49.234;9.326;2023-02-23T00:55:18;99316.25;;;12.13;75.83
6216;BME280;3141;49.234;9.326;2023-02-23T00:56:03;99320.53;;;12.14;75.84
6216;BME280;3141;49.234;9.326;2023-02-23T00:56:46;99317.41;;;12.10;75.66
6216;BME280;3141;49.234;9.326;2023-02-23T00:57:29;99313.91;;;12.10;75.83
6216;BME280;3141;49.234;9.326;2023-02-23T00:58:11;99317.03;;;12.13;75.75
6216;BME280;3141;49.234;9.326;2023-02-23T00:58:55;99320.72;;;12.12;76.02
6216;BME280;3141;49.234;9.326;2023-02-23T00:59:37;99316.56;;;12.10;75.63
6216;BME280;3141;49.234;9.326;2023-02-23T01:00:20;99321.38;;;12.14;75.68
6216;BME280;3141;49.234;9.326;2023-02-23T01:01:10;99316.91;;;12.07;76.61
6216;BME280;3141;49.234;9.326;2023-02-23T01:01:53;99319.63;;;11.99;77.26
6216;BME280;3141;49.234;9.326;2023-02-23T01:02:35;99317.81;;;11.99;77.11
6216;BME280;3141;49.234;9.326;2023-02-23T01:03:18;99323.22;;;12.06;76.72
6216;BME280;3141;49.234;9.326;2023-02-23T01:04:00;99316.09;;;12.06;76.67
6216;BME280;3141;49.234;9.326;2023-02-23T01:04:43;99318.25;;;12.11;76.43
6216;BME280;3141;49.234;9.326;2023-02-23T01:05:25;99317.03;;;12.13;76.39
6216;BME280;3141;49.234;9.326;2023-02-23T01:06:10;99316.25;;;12.13;76.61
6216;BME280;3141;49.234;9.326;2023-02-23T01:06:53;99321.53;;;12.13;76.60
6216;BME280;3141;49.234;9.326;2023-02-23T01:07:35;99316.25;;;12.13;76.68
6216;BME280;3141;49.234;9.326;2023-02-23T01:08:18;99317.88;;;12.14;76.97
6216;BME280;3141;49.234;9.326;2023-02-23T01:09:00;99319.56;;;12.15;76.97
6216;BME280;3141;49.234;9.326;2023-02-23T01:09:46;99314.25;;;12.15;77.01
6216;BME280;3141;49.234;9.326;2023-02-23T01:10:28;99322.34;;;12.13;77.44
6216;BME280;3141;49.234;9.326;2023-02-23T01:11:13;99322.34;;;12.13;77.50
6216;BME280;3141;49.234;9.326;2023-02-23T01:11:56;99320.72;;;12.12;77.42
6216;BME280;3141;49.234;9.326;2023-02-23T01:12:42;99315.59;;;12.11;77.77
6216;BME280;3141;49.234;9.326;2023-02-23T01:13:24;99328.47;;;12.14;77.69
6216;BME280;3141;49.234;9.326;2023-02-23T01:14:09;99318.91;;;12.13;77.74
6216;BME280;3141;49.234;9.326;2023-02-23T01:14:52;99321.38;;;12.14;77.17
6216;BME280;3141;49.234;9.326;2023-02-23T01:15:39;99324.13;;;12.21;76.76
6216;BME280;3141;49.234;9.326;2023-02-23T01:16:25;99324.59;;;12.24;76.68
6216;BME280;3141;49.234;9.326;2023-02-23T01:17:08;99327.94;;;12.18;77.71
6216;BME280;3141;49.234;9.326;2023-02-23T01:17:51;99327.50;;;12.15;78.06
6216;BME280;3141;49.234;9.326;2023-02-23T01:18:34;99326.47;;;12.16;77.72
6216;BME280;3141;49.234;9.326;2023-02-23T01:19:16;99318.19;;;12.19;77.30
6216;BME280;3141;49.234;9.326;2023-02-23T01:19:59;99320.34;;;12.15;77.93
6216;BME280;3141;49.234;9.326;2023-02-23T01:20:42;99326.66;;;12.14;77.57
6216;BME280;3141;49.234;9.326;2023-02-23T01:21:27;99328.13;;;12.17;77.39
6216;BME280;3141;49.234;9.326;2023-02-23T01:22:09;99319.19;;;12.18;77.46
6216;BME280;3141;49.234;9.326;2023-02-23T01:22:52;99323.47;;;12.19;77.32
6216;BME280;3141;49.234;9.326;2023-02-23T01:23:34;99322.81;;;12.17;77.93
6216;BME280;3141;49.234;9.326;2023-02-23T01:24:17;99320.53;;;12.14;78.70
6216;BME280;3141;49.234;9.326;2023-02-23T01:24:59;99320.16;;;12.17;78.22
6216;BME280;3141;49.234;9.326;2023-02-23T01:25:43;99317.53;;;12.17;78.00
6216;BME280;3141;49.234;9.326;2023-02-23T01:26:28;99319.19;;;12.18;78.01
6216;BME280;3141;49.234;9.326;2023-02-23T01:27:11;99321.19;;;12.16;78.34
6216;BME280;3141;49.234;9.326;2023-02-23T01:27:54;99317.03;;;12.21;77.63
6216;BME280;3141;49.234;9.326;2023-02-23T01:28:36;99316.19;;;12.21;77.74
6216;BME280;3141;49.234;9.326;2023-02-23T01:29:18;99315.53;;;12.19;77.53
6216;BME280;3141;49.234;9.326;2023-02-23T01:30:01;99316.38;;;12.19;77.92
6216;BME280;3141;49.234;9.326;2023-02-23T01:30:43;99309.41;;;12.18;77.78
6216;BME280;3141;49.234;9.326;2023-02-23T01:31:27;99314.38;;;12.21;77.67
6216;BME280;3141;49.234;9.326;2023-02-23T01:32:10;99319.00;;;12.19;77.84
6216;BME280;3141;49.234;9.326;2023-02-23T01:32:52;99310.72;;;12.22;77.88
6216;BME280;3141;49.234;9.326;2023-02-23T01:33:34;99318.00;;;12.20;77.82
6216;BME280;3141;49.234;9.326;2023-02-23T01:34:18;99315.16;;;12.22;77.74
6216;BME280;3141;49.234;9.326;2023-02-23T01:35:09;99313.84;;;12.26;77.70
6216;BME280;3141;49.234;9.326;2023-02-23T01:35:57;99316.47;;;12.26;78.23
6216;BME280;3141;49.234;9.326;2023-02-23T01:36:42;99312.19;;;12.25;78.04
6216;BME280;3141;49.234;9.326;2023-02-23T01:37:24;99317.31;;;12.26;77.75
6216;BME280;3141;49.234;9.326;2023-02-23T01:38:06;99312.00;;;12.26;77.91
6216;BME280;3141;49.234;9.326;2023-02-23T01:38:49;99311.19;;;12.26;77.95
6216;BME280;3141;49.234;9.326;2023-02-23T01:39:31;99307.69;;;12.25;78.03
6216;BME280;3141;49.234;9.326;2023-02-23T01:40:19;99303.41;;;12.24;77.76
6216;BME280;3141;49.234;9.326;2023-02-23T01:41:10;99307.22;;;12.22;78.09
6216;BME280;3141;49.234;9.326;2023-02-23T01:41:54;99306.59;;;12.20;78.57
6216;BME280;3141;49.234;9.326;2023-02-23T01:42:37;99312.53;;;12.22;77.91
6216;BME280;3141;49.234;9.326;2023-02-23T01:43:21;99302.56;;;12.24;78.26
6216;BME280;3141;49.234;9.326;2023-02-23T01:46:00;99305.09;;;12.17;78.48
6216;BME280;3141;49.234;9.326;2023-02-23T01:46:44;99310.22;;;12.19;78.53
6216;BME280;3141;49.234;9.326;2023-02-23T01:47:27;99306.13;;;12.16;78.37
6216;BME280;3141;49.234;9.326;2023-02-23T01:48:17;99309.56;;;12.17;78.24
6216;BME280;3141;49.234;9.326;2023-02-23T01:49:01;99312.59;;;12.14;78.63
6216;BME280;3141;49.234;9.326;2023-02-23T01:49:45;99307.94;;;12.16;78.61
6216;BME280;3141;49.234;9.326;2023-02-23T01:50:32;99308.94;;;12.15;78.34
6216;BME280;3141;49.234;9.326;2023-02-23T01:51:19;99309.94;;;12.14;78.56
6216;BME280;3141;49.234;9.326;2023-02-23T01:52:06;99310.94;;;12.13;78.98
6216;BME280;3141;49.234;9.326;2023-02-23T01:52:53;99303.66;;;12.15;78.59
6216;BME280;3141;49.234;9.326;2023-02-23T01:53:39;99304.81;;;12.12;78.80
6216;BME280;3141;49.234;9.326;2023-02-23T01:54:26;99303.78;;;12.13;78.87
6216;BME280;3141;49.234;9.326;2023-02-23T01:55:10;99310.47;;;12.09;78.79
6216;BME280;3141;49.234;9.326;2023-02-23T01:55:57;99310.00;;;12.06;78.81
6216;BME280;3141;49.234;9.326;2023-02-23T01:56:43;99313.00;;;12.03;79.22
6216;BME280;3141;49.234;9.326;2023-02-23T01:57:26;99309.50;;;12.02;79.41
6216;BME280;3141;49.234;9.326;2023-02-23T01:58:12;99313.44;;;12.06;78.94
6216;BME280;3141;49.234;9.326;2023-02-23T01:58:58;99308.78;;;12.08;78.96
6216;BME280;3141;49.234;9.326;2023-02-23T01:59:47;99305.97;;;12.10;79.14
6216;BME280;3141;49.234;9.326;2023-02-23T02:00:30;99313.13;;;12.09;79.36
6216;BME280;3141;49.234;9.326;2023-02-23T02:01:17;99307.34;;;12.06;79.65
6216;BME280;3141;49.234;9.326;2023-02-23T02:02:00;99301.38;;;12.04;80.41
6216;BME280;3141;49.234;9.326;2023-02-23T02:02:46;99305.66;;;12.05;80.23
6216;BME280;3141;49.234;9.326;2023-02-23T02:03:39;99310.00;;;12.06;79.77
6216;BME280;3141;49.234;9.326;2023-02-23T02:04:23;99303.03;;;12.05;80.01
6216;BME280;3141;49.234;9.326;2023-02-23T02:05:07;99304.03;;;12.04;79.88
6216;BME280;3141;49.234;9.326;2023-02-23T02:05:54;99309.63;;;12.09;79.81
6216;BME280;3141;49.234;9.326;2023-02-23T02:06:38;99307.16;;;12.07;80.15
6216;BME280;3141;49.234;9.326;2023-02-23T02:07:28;99306.69;;;12.04;80.75
6216;BME280;3141;49.234;9.326;2023-02-23T02:08:12;99302.41;;;12.03;80.70
6216;BME280;3141;49.234;9.326;2023-02-23T02:09:01;99308.38;;;11.97;81.66
6216;BME280;3141;49.234;9.326;2023-02-23T02:09:48;99305.19;;;12.01;81.38
6216;BME280;3141;49.234;9.326;2023-02-23T02:10:51;99308.84;;;12.00;81.54
6216;BME280;3141;49.234;9.326;2023-02-23T02:11:37;99308.50;;;12.03;80.69
6216;BME280;3141;49.234;9.326;2023-02-23T02:12:20;99307.69;;;12.03;80.70
6216;BME280;3141;49.234;9.326;2023-02-23T02:13:06;99307.69;;;12.03;81.15
6216;BME280;3141;49.234;9.326;2023-02-23T02:13:59;99300.56;;;12.03;80.79
6216;BME280;3141;49.234;9.326;2023-02-23T02:14:43;99304.22;;;11.94;81.31
6216;BME280;3141;49.234;9.326;2023-02-23T02:15:31;99304.28;;;11.86;81.74
6216;BME280;3141;49.234;9.326;2023-02-23T02:16:32;99310.09;;;11.82;82.26
6216;BME280;3141;49.234;9.326;2023-02-23T02:18:21;99307.09;;;11.85;81.84
6216;BME280;3141;49.234;9.326;2023-02-23T02:21:31;99297.81;;;11.89;80.89
6216;BME280;3141;49.234;9.326;2023-02-23T02:22:51;99299.81;;;11.87;81.51
6216;BME280;3141;49.234;9.326;2023-02-23T02:28:19;99306.56;;;11.89;81.81
6216;BME280;3141;49.234;9.326;2023-02-23T02:31:48;99299.16;;;11.85;81.93
6216;BME280;3141;49.234;9.326;2023-02-23T02:32:54;99302.34;;;11.72;83.15
6216;BME280;3141;49.234;9.326;2023-02-23T02:34:02;99305.13;;;11.79;82.49
6216;BME280;3141;49.234;9.326;2023-02-23T02:38:04;99299.06;;;11.70;83.23
6216;BME280;3141;49.234;9.326;2023-02-23T02:39:55;99300.53;;;11.73;83.01
6216;BME280;3141;49.234;9.326;2023-02-23T02:41:08;99300.50;;;11.81;82.99
6216;BME280;3141;49.234;9.326;2023-02-23T02:42:59;99291.56;;;11.82;82.78
6216;BME280;3141;49.234;9.326;2023-02-23T02:44:13;99299.22;;;11.77;83.18
6216;BME280;3141;49.234;9.326;2023-02-23T02:45:11;99296.50;;;11.85;82.69
6216;BME280;3141;49.234;9.326;2023-02-23T02:46:54;99300.50;;;11.81;83.08
6216;BME280;3141;49.234;9.326;2023-02-23T02:48:38;99293.38;;;11.81;83.49
6216;BME280;3141;49.234;9.326;2023-02-23T02:49:30;99303.19;;;11.73;83.84
6216;BME280;3141;49.234;9.326;2023-02-23T02:50:18;99305.19;;;11.71;83.86
6216;BME280;3141;49.234;9.326;2023-02-23T02:51:06;99297.72;;;11.74;83.77
6216;BME280;3141;49.234;9.326;2023-02-23T02:51:57;99291.94;;;11.71;82.69
6216;BME280;3141;49.234;9.326;2023-02-23T02:52:55;99295.06;;;11.74;83.44
6216;BME280;3141;49.234;9.326;2023-02-23T02:53:47;99290.78;;;11.73;83.18
6216;BME280;3141;49.234;9.326;2023-02-23T02:54:41;99290.63;;;11.67;84.02
6216;BME280;3141;49.234;9.326;2023-02-23T02:55:29;99292.28;;;11.68;84.04
6216;BME280;3141;49.234;9.326;2023-02-23T02:56:18;99292.91;;;11.78;83.69
6216;BME280;3141;49.234;9.326;2023-02-23T02:57:03;99291.88;;;11.79;83.91
6216;BME280;3141;49.234;9.326;2023-02-23T02:57:47;99293.22;;;11.83;83.82
6216;BME280;3141;49.234;9.326;2023-02-23T02:58:29;99290.06;;;11.87;83.23
6216;BME280;3141;49.234;9.326;2023-02-23T02:59:15;99289.16;;;11.95;82.82
6216;BME280;3141;49.234;9.326;2023-02-23T03:00:19;99286.88;;;11.92;83.49
6216;BME280;3141;49.234;9.326;2023-02-23T03:01:20;99287.91;;;11.83;84.12
6216;BME280;3141;49.234;9.326;2023-02-23T03:02:21;99284.97;;;11.78;84.77
6216;BME280;3141;49.234;9.326;2023-02-23T03:03:32;99287.91;;;11.83;84.31
6216;BME280;3141;49.234;9.326;2023-02-23T03:04:34;99292.84;;;11.86;84.28
6216;BME280;3141;49.234;9.326;2023-02-23T03:05:47;99288.38;;;11.86;83.98
6216;BME280;3141;49.234;9.326;2023-02-23T03:06:58;99295.19;;;11.81;84.28
6216;BME280;3141;49.234;9.326;2023-02-23T03:08:20;99290.59;;;11.75;84.38
6216;BME280;3141;49.234;9.326;2023-02-23T03:09:41;99287.91;;;11.83;83.68
6216;BME280;3141;49.234;9.326;2023-02-23T03:10:49;99287.91;;;11.83;84.29
6216;BME280;3141;49.234;9.326;2023-02-23T03:12:06;99287.56;;;11.86;83.62
6216;BME280;3141;49.234;9.326;2023-02-23T03:13:25;99282.91;;;11.88;83.70
6216;BME280;3141;49.234;9.326;2023-02-23T03:14:37;99287.22;;;11.89;83.66
6216;BME280;3141;49.234;9.326;2023-02-23T03:15:57;99291.81;;;11.95;83.23
6216;BME280;3141;49.234;9.326;2023-02-23T03:18:47;99287.88;;;11.91;83.48
6216;BME280;3141;49.234;9.326;2023-02-23T03:20:04;99281.47;;;11.77;84.38
6216;BME280;3141;49.234;9.326;2023-02-23T03:21:14;99290.25;;;11.78;84.68
6216;BME280;3141;49.234;9.326;2023-02-23T03:22:24;99287.91;;;11.83;84.41
6216;BME280;3141;49.234;9.326;2023-02-23T03:24:59;99293.69;;;11.86;84.31
6216;BME280;3141;49.234;9.326;2023-02-23T03:26:12;99293.69;;;11.86;84.15
6216;BME280;3141;49.234;9.326;2023-02-23T03:29:08;99303.81;;;11.83;84.71
6216;BME280;3141;49.234;9.326;2023-02-23T03:31:26;99299.81;;;11.87;85.56
6216;BME280;3141;49.234;9.326;2023-02-23T03:32:36;99298.00;;;11.87;85.20
6216;BME280;3141;49.234;9.326;2023-02-23T03:36:18;99303.56;;;12.00;84.41
6216;BME280;3141;49.234;9.326;2023-02-23T03:37:23;99293.63;;;12.02;84.08
6216;BME280;3141;49.234;9.326;2023-02-23T03:39:16;99298.72;;;12.04;83.90
6216;BME280;3141;49.234;9.326;2023-02-23T03:40:12;99300.72;;;12.02;84.22
6216;BME280;3141;49.234;9.326;2023-02-23T03:41:19;99296.75;;;11.98;84.43
6216;BME280;3141;49.234;9.326;2023-02-23T03:42:24;99292.19;;;11.92;84.60
6216;BME280;3141;49.234;9.326;2023-02-23T03:43:40;99293.69;;;11.86;84.80
6216;BME280;3141;49.234;9.326;2023-02-23T03:44:45;99284.59;;;11.81;85.45
6216;BME280;3141;49.234;9.326;2023-02-23T03:45:48;99295.19;;;11.81;85.42
6216;BME280;3141;49.234;9.326;2023-02-23T03:46:51;99296.56;;;11.77;86.07
6216;BME280;3141;49.234;9.326;2023-02-23T03:47:54;99295.19;;;11.81;86.20
6216;BME280;3141;49.234;9.326;2023-02-23T03:48:57;99290.09;;;11.79;86.15
6216;BME280;3141;49.234;9.326;2023-02-23T03:50:02;99299.22;;;11.77;86.00
6216;BME280;3141;49.234;9.326;2023-02-23T03:51:06;99296.56;;;11.77;86.19
6216;BME280;3141;49.234;9.326;2023-02-23T03:52:20;99291.88;;;11.79;86.41
6216;BME280;3141;49.234;9.326;2023-02-23T03:53:28;99290.25;;;11.78;86.61
6216;BME280;3141;49.234;9.326;2023-02-23T03:54:59;99288.63;;;11.77;86.71
6216;BME280;3141;49.234;9.326;2023-02-23T03:56:00;99293.50;;;11.88;86.29
6216;BME280;3141;49.234;9.326;2023-02-23T03:57:04;99295.47;;;11.94;85.52
6216;BME280;3141;49.234;9.326;2023-02-23T03:58:11;99291.16;;;11.93;85.86
6216;BME280;3141;49.234;9.326;2023-02-23T03:59:16;99297.16;;;11.87;86.64
6216;BME280;3141;49.234;9.326;2023-02-23T04:00:28;99293.09;;;11.76;87.33
6216;BME280;3141;49.234;9.326;2023-02-23T04:01:30;99300.22;;;11.68;87.62
6216;BME280;3141;49.234;9.326;2023-02-23T04:02:33;99294.28;;;11.66;88.09
6216;BME280;3141;49.234;9.326;2023-02-23T04:03:38;99287.19;;;11.66;87.81
6216;BME280;3141;49.234;9.326;2023-02-23T04:04:41;99292.94;;;11.61;88.18
6216;BME280;3141;49.234;9.326;2023-02-23T04:05:45;99293.44;;;11.65;88.62
6216;BME280;3141;49.234;9.326;2023-02-23T04:06:48;99294.59;;;11.71;88.00
6216;BME280;3141;49.234;9.326;2023-02-23T04:07:50;99288.63;;;11.69;88.28
6216;BME280;3141;49.234;9.326;2023-02-23T04:08:52;99289.28;;;11.71;88.18
6216;BME280;3141;49.234;9.326;2023-02-23T04:09:56;99285.78;;;11.78;87.88
6216;BME280;3141;49.234;9.326;2023-02-23T04:11:16;99289.22;;;11.87;87.65
6216;BME280;3141;49.234;9.326;2023-02-23T04:12:29;99294.53;;;11.87;87.91
6216;BME280;3141;49.234;9.326;2023-02-23T04:13:35;99292.00;;;11.93;87.04
6216;BME280;3141;49.234;9.326;2023-02-23T04:14:27;99297.00;;;11.88;87.63
6216;BME280;3141;49.234;9.326;2023-02-23T04:16:00;99297.28;;;11.93;87.63
6216;BME280;3141;49.234;9.326;2023-02-23T04:16:44;99291.47;;;11.98;87.01
6216;BME280;3141;49.234;9.326;2023-02-23T04:17:27;99299.09;;;12.01;86.88
6216;BME280;3141;49.234;9.326;2023-02-23T04:18:22;99298.06;;;12.02;86.69
6216;BME280;3141;49.234;9.326;2023-02-23T04:19:05;99296.44;;;12.01;86.79
6216;BME280;3141;49.234;9.326;2023-02-23T04:19:51;99304.38;;;12.01;86.83
6216;BME280;3141;49.234;9.326;2023-02-23T04:20:33;99298.25;;;12.00;86.77
6216;BME280;3141;49.234;9.326;2023-02-23T04:21:16;99298.44;;;11.99;86.78
6216;BME280;3141;49.234;9.326;2023-02-23T04:21:58;99304.72;;;11.98;87.00
6216;BME280;3141;49.234;9.326;2023-02-23T04:22:40;99296.44;;;12.01;86.96
6216;BME280;3141;49.234;9.326;2023-02-23T04:23:24;99294.44;;;12.03;86.88
6216;BME280;3141;49.234;9.326;2023-02-23T04:24:06;99295.25;;;12.03;86.61
6216;BME280;3141;49.234;9.326;2023-02-23T04:24:50;99297.91;;;12.03;86.87
6216;BME280;3141;49.234;9.326;2023-02-23T04:25:32;99297.72;;;12.05;86.95
6216;BME280;3141;49.234;9.326;2023-02-23T04:26:14;99296.09;;;12.04;86.95
6216;BME280;3141;49.234;9.326;2023-02-23T04:26:57;99295.13;;;11.97;86.88
6216;BME280;3141;49.234;9.326;2023-02-23T04:27:39;99299.56;;;12.04;86.87
6216;BME280;3141;49.234;9.326;2023-02-23T04:28:23;99293.63;;;12.02;86.76
6216;BME280;3141;49.234;9.326;2023-02-23T04:29:06;99298.56;;;12.05;86.85
6216;BME280;3141;49.234;9.326;2023-02-23T04:29:48;99302.84;;;12.06;86.31
6216;BME280;3141;49.234;9.326;2023-02-23T04:30:31;99303.84;;;12.05;86.35
6216;BME280;3141;49.234;9.326;2023-02-23T04:31:13;99298.56;;;12.05;86.46
6216;BME280;3141;49.234;9.326;2023-02-23T04:31:56;99302.03;;;12.06;86.55
6216;BME280;3141;49.234;9.326;2023-02-23T04:32:38;99301.38;;;12.04;86.76
6216;BME280;3141;49.234;9.326;2023-02-23T04:33:21;99303.56;;;12.00;86.76
6216;BME280;3141;49.234;9.326;2023-02-23T04:34:03;99303.72;;;11.99;87.12
6216;BME280;3141;49.234;9.326;2023-02-23T04:34:46;99301.44;;;11.96;86.95
6216;BME280;3141;49.234;9.326;2023-02-23T04:35:28;99304.41;;;11.93;88.41
6216;BME280;3141;49.234;9.326;2023-02-23T04:36:12;99303.78;;;11.91;87.98
6216;BME280;3141;49.234;9.326;2023-02-23T04:36:54;99305.94;;;11.87;88.84
6216;BME280;3141;49.234;9.326;2023-02-23T04:37:37;99300.47;;;11.89;89.17
6216;BME280;3141;49.234;9.326;2023-02-23T04:38:20;99300.97;;;11.92;88.48
6216;BME280;3141;49.234;9.326;2023-02-23T04:39:02;99299.59;;;11.96;88.49
6216;BME280;3141;49.234;9.326;2023-02-23T04:39:45;99299.59;;;11.96;88.83
6216;BME280;3141;49.234;9.326;2023-02-23T04:40:31;99304.75;;;11.90;89.12
6216;BME280;3141;49.234;9.326;2023-02-23T04:41:13;99291.81;;;11.95;89.11
6216;BME280;3141;49.234;9.326;2023-02-23T04:41:55;99305.72;;;11.97;88.10
6216;BME280;3141;49.234;9.326;2023-02-23T04:42:39;99305.53;;;11.98;88.13
6216;BME280;3141;49.234;9.326;2023-02-23T04:43:21;99301.59;;;11.94;88.05
6216;BME280;3141;49.234;9.326;2023-02-23T04:44:03;99305.72;;;11.97;88.21
6216;BME280;3141;49.234;9.326;2023-02-23T04:44:46;99305.53;;;11.98;88.20
6216;BME280;3141;49.234;9.326;2023-02-23T04:45:29;99303.72;;;11.99;88.13
6216;BME280;3141;49.234;9.326;2023-02-23T04:46:11;99304.09;;;11.96;88.48
6216;BME280;3141;49.234;9.326;2023-02-23T04:46:55;99299.09;;;12.01;88.23
6216;BME280;3141;49.234;9.326;2023-02-23T04:47:37;99302.22;;;12.04;87.83
6216;BME280;3141;49.234;9.326;2023-02-23T04:48:20;99299.41;;;11.98;88.23
6216;BME280;3141;49.234;9.326;2023-02-23T04:49:02;99294.44;;;12.03;88.04
6216;BME280;3141;49.234;9.326;2023-02-23T04:49:45;99304.69;;;12.06;87.83
6216;BME280;3141;49.234;9.326;2023-02-23T04:50:27;99302.84;;;12.06;87.50
6216;BME280;3141;49.234;9.326;2023-02-23T04:51:09;99308.47;;;12.11;87.32
6216;BME280;3141;49.234;9.326;2023-02-23T04:51:52;99301.31;;;12.12;86.77
6216;BME280;3141;49.234;9.326;2023-02-23T04:52:34;99305.97;;;12.10;87.36
6216;BME280;3141;49.234;9.326;2023-02-23T04:53:18;99302.34;;;12.11;87.24
6216;BME280;3141;49.234;9.326;2023-02-23T04:54:01;99298.50;;;12.13;86.66
6216;BME280;3141;49.234;9.326;2023-02-23T04:54:44;99301.97;;;12.14;87.04
6216;BME280;3141;49.234;9.326;2023-02-23T04:55:27;99302.16;;;12.12;86.91
6216;BME280;3141;49.234;9.326;2023-02-23T04:56:09;99298.19;;;12.08;86.62
6216;BME280;3141;49.234;9.326;2023-02-23T04:56:53;99303.84;;;12.05;87.06
6216;BME280;3141;49.234;9.326;2023-02-23T04:57:35;99303.38;;;12.02;87.44